Time;durP1;ratioP1;P1;durP2;ratioP2;P2;SDS_P1;SDS_P2;PMS_P1;PMS_P2;Temp;Humidity;BMP_temperature;BMP_pressure;BME280_temperature;BME280_humidity;BME280_pressure;Samples;Min_cycle;Max_cycle;Signal;HPM_P1;HPM_P2
2020/12/24 00:03:37;;;;;;;;;77.75;61.00;;;;;;;;12214285;29;8871;-51
2020/12/24 00:09:39;;;;;;;;;86.33;65.67;;;;;;;;12223458;29;8910;-48
2020/12/24 00:15:40;;;;;;;;;85.50;68.00;;;;;;;;12215186;29;8868;-50
2020/12/24 00:21:51;;;;;;;;;80.75;61.50;;;;;;;;12219255;29;8888;-52
2020/12/24 00:27:52;;;;;;;;;78.00;63.50;;;;;;;;12216125;29;8915;-50
2020/12/24 00:33:54;;;;;;;;;81.25;64.50;;;;;;;;12212171;29;8847;-51
2020/12/24 00:39:55;;;;;;;;;83.00;64.50;;;;;;;;12206146;29;8863;-52
2020/12/24 00:45:56;;;;;;;;;85.50;66.75;;;;;;;;12214807;29;8853;-49
2020/12/24 00:52:09;;;;;;;;;88.00;66.50;;;;;;;;12212763;29;9601;-51
2020/12/24 00:58:11;;;;;;;;;88.75;70.25;;;;;;;;12204066;29;8884;-50
2020/12/24 01:04:15;;;;;;;;;87.25;68.50;;;;;;;;12193071;29;8923;-52
2020/12/24 01:10:16;;;;;;;;;94.00;72.33;;;;;;;;12219880;29;8851;-51
2020/12/24 01:16:18;;;;;;;;;93.75;72.25;;;;;;;;12213683;29;8868;-49
2020/12/24 01:22:32;;;;;;;;;85.25;64.50;;;;;;;;12219098;29;8862;-48
2020/12/24 01:28:34;;;;;;;;;94.67;70.33;;;;;;;;12214721;29;8866;-49
2020/12/24 01:34:36;;;;;;;;;91.00;67.00;;;;;;;;12213128;29;9103;-48
2020/12/24 01:40:37;;;;;;;;;80.25;64.50;;;;;;;;12212401;29;8881;-52
2020/12/24 01:46:39;;;;;;;;;85.25;66.75;;;;;;;;12217758;29;8876;-49
2020/12/24 01:52:50;;;;;;;;;88.50;70.50;;;;;;;;12209325;29;8845;-50
2020/12/24 01:58:53;;;;;;;;;87.75;67.50;;;;;;;;12215318;29;9552;-52
2020/12/24 02:04:55;;;;;;;;;80.50;64.25;;;;;;;;12218161;29;9624;-50
2020/12/24 02:10:57;;;;;;;;;82.25;62.25;;;;;;;;12224265;29;8871;-48
2020/12/24 02:16:58;;;;;;;;;85.00;65.00;;;;;;;;12227171;29;8857;-50
2020/12/24 02:23:08;;;;;;;;;87.00;66.25;;;;;;;;12216568;29;8891;-51
2020/12/24 02:29:10;;;;;;;;;86.00;64.00;;;;;;;;12223594;29;8844;-50
2020/12/24 02:35:12;;;;;;;;;85.00;64.25;;;;;;;;12220347;29;8993;-50
2020/12/24 02:41:13;;;;;;;;;86.25;63.75;;;;;;;;12222987;29;8905;-48
2020/12/24 02:47:14;;;;;;;;;79.50;62.50;;;;;;;;12226990;29;8845;-48
2020/12/24 02:53:30;;;;;;;;;77.25;60.25;;;;;;;;12216829;29;8847;-48
2020/12/24 02:59:31;;;;;;;;;81.25;63.25;;;;;;;;12225348;29;8875;-51
2020/12/24 03:05:32;;;;;;;;;77.50;63.25;;;;;;;;12216378;29;9231;-47
2020/12/24 03:11:49;;;;;;;;;81.50;64.25;;;;;;;;12220784;29;8875;-51
2020/12/24 03:17:51;;;;;;;;;72.00;55.25;;;;;;;;12224017;29;9485;-51
2020/12/24 03:23:52;;;;;;;;;78.75;60.50;;;;;;;;12218494;29;8923;-47
2020/12/24 03:29:57;;;;;;;;;74.50;59.00;;;;;;;;12224551;29;8845;-48
2020/12/24 03:35:58;;;;;;;;;83.00;64.25;;;;;;;;12216236;29;8861;-48
2020/12/24 03:42:00;;;;;;;;;70.25;59.25;;;;;;;;12216300;29;8982;-49
2020/12/24 03:48:01;;;;;;;;;78.75;61.00;;;;;;;;12222376;29;8855;-47
2020/12/24 03:54:10;;;;;;;;;79.25;62.00;;;;;;;;12218635;29;8977;-49
2020/12/24 04:00:11;;;;;;;;;74.75;59.00;;;;;;;;12213661;29;8866;-48
2020/12/24 04:06:13;;;;;;;;;70.25;57.00;;;;;;;;12223367;29;8895;-49
2020/12/24 04:12:14;;;;;;;;;79.25;63.50;;;;;;;;12217678;29;9858;-52
2020/12/24 04:18:16;;;;;;;;;73.00;58.50;;;;;;;;12223228;29;9631;-50
2020/12/24 04:24:30;;;;;;;;;77.25;61.25;;;;;;;;12219275;29;8895;-48
2020/12/24 04:30:32;;;;;;;;;83.75;63.50;;;;;;;;12196487;29;8959;-52
2020/12/24 04:36:34;;;;;;;;;86.00;66.75;;;;;;;;12220834;29;8939;-51
2020/12/24 04:42:36;;;;;;;;;90.25;68.25;;;;;;;;12201835;29;8851;-49
2020/12/24 04:48:40;;;;;;;;;89.00;69.00;;;;;;;;12218129;29;9633;-52
2020/12/24 04:54:52;;;;;;;;;91.25;70.50;;;;;;;;12198465;29;8843;-51
2020/12/24 05:07:31;;;;;;;;;88.00;68.50;;;;;;;;12351446;23;8916;-55
2020/12/24 05:13:32;;;;;;;;;85.50;67.00;;;;;;;;12288199;28;8855;-55
2020/12/24 05:19:47;;;;;;;;;85.50;65.00;;;;;;;;12288759;28;8870;-55
2020/12/24 05:25:49;;;;;;;;;84.00;66.25;;;;;;;;12286693;28;8887;-56
2020/12/24 05:31:52;;;;;;;;;86.00;66.75;;;;;;;;12287992;28;8858;-55
2020/12/24 05:37:54;;;;;;;;;84.75;68.00;;;;;;;;12287730;28;8867;-56
2020/12/24 05:44:00;;;;;;;;;86.75;65.75;;;;;;;;12288100;29;8878;-55
2020/12/24 05:50:21;;;;;;;;;83.00;62.75;;;;;;;;12288427;29;8838;-56
2020/12/24 05:56:23;;;;;;;;;83.00;65.75;;;;;;;;12282445;29;8877;-55
2020/12/24 06:02:27;;;;;;;;;81.75;61.50;;;;;;;;12281976;28;8976;-57
2020/12/24 06:08:33;;;;;;;;;85.75;64.75;;;;;;;;12255214;29;8829;-57
2020/12/24 06:14:34;;;;;;;;;90.25;69.00;;;;;;;;12255447;29;8859;-56
2020/12/24 06:20:38;;;;;;;;;92.00;67.50;;;;;;;;12251688;29;8850;-57
2020/12/24 06:26:45;;;;;;;;;84.50;65.50;;;;;;;;12240152;29;9048;-57
2020/12/24 06:32:49;;;;;;;;;86.00;67.50;;;;;;;;12255285;29;8873;-56
2020/12/24 06:38:50;;;;;;;;;83.25;62.25;;;;;;;;12255308;29;9457;-55
2020/12/24 06:44:52;;;;;;;;;73.00;58.00;;;;;;;;12251159;29;8885;-55
2020/12/24 06:51:04;;;;;;;;;74.75;59.25;;;;;;;;12248330;28;8886;-57
2020/12/24 06:57:22;;;;;;;;;78.25;60.25;;;;;;;;12254141;28;8845;-57
2020/12/24 07:03:25;;;;;;;;;86.25;64.75;;;;;;;;12266953;29;9031;-57
2020/12/24 07:09:26;;;;;;;;;85.00;65.00;;;;;;;;12267188;28;8839;-57
2020/12/24 07:15:30;;;;;;;;;89.75;68.25;;;;;;;;12265249;28;8875;-56
2020/12/24 07:21:36;;;;;;;;;90.75;69.75;;;;;;;;12256194;29;8875;-54
2020/12/24 07:27:46;;;;;;;;;87.00;68.25;;;;;;;;12248321;29;8871;-55
2020/12/24 07:33:48;;;;;;;;;85.00;67.25;;;;;;;;12255538;28;8843;-55
2020/12/24 07:39:53;;;;;;;;;84.00;64.25;;;;;;;;12253545;29;8860;-55
2020/12/24 07:45:55;;;;;;;;;86.50;68.00;;;;;;;;12240753;28;8835;-56
2020/12/24 07:51:58;;;;;;;;;85.00;67.75;;;;;;;;12253476;29;8916;-59
2020/12/24 07:58:10;;;;;;;;;86.00;67.75;;;;;;;;12249464;29;8968;-56
2020/12/24 08:04:12;;;;;;;;;86.50;66.75;;;;;;;;12250982;28;8981;-57
2020/12/24 08:10:13;;;;;;;;;82.00;63.50;;;;;;;;12255169;28;8905;-58
2020/12/24 08:16:17;;;;;;;;;80.00;63.00;;;;;;;;12265543;28;8863;-58
2020/12/24 08:22:29;;;;;;;;;82.50;64.50;;;;;;;;12231659;28;8873;-57
2020/12/24 08:28:30;;;;;;;;;94.50;70.50;;;;;;;;12245238;28;9711;-57
2020/12/24 08:34:32;;;;;;;;;81.25;62.25;;;;;;;;12259063;29;8867;-58
2020/12/24 08:40:35;;;;;;;;;85.50;68.25;;;;;;;;12258727;28;8843;-57
2020/12/24 08:46:37;;;;;;;;;90.25;67.75;;;;;;;;12258454;29;8852;-55
2020/12/24 08:52:43;;;;;;;;;94.00;74.25;;;;;;;;12257399;28;8835;-59
2020/12/24 08:58:53;;;;;;;;;89.00;68.25;;;;;;;;12259930;28;8850;-57
2020/12/24 09:04:57;;;;;;;;;91.25;71.50;;;;;;;;12256559;29;8861;-56
2020/12/24 09:10:58;;;;;;;;;94.50;72.00;;;;;;;;12263291;28;8851;-58
2020/12/24 09:17:01;;;;;;;;;87.75;66.50;;;;;;;;12259319;28;8850;-56
2020/12/24 09:23:14;;;;;;;;;94.50;70.00;;;;;;;;12243316;29;8863;-60
2020/12/24 09:29:16;;;;;;;;;86.50;65.25;;;;;;;;12247662;28;8842;-57
2020/12/24 09:35:23;;;;;;;;;88.25;65.75;;;;;;;;12245025;28;8853;-59
2020/12/24 09:41:25;;;;;;;;;79.25;57.00;;;;;;;;12247694;28;8859;-57
2020/12/24 09:47:27;;;;;;;;;89.00;67.75;;;;;;;;12252375;29;8857;-58
2020/12/24 09:53:28;;;;;;;;;89.25;68.50;;;;;;;;12248590;29;8862;-59
2020/12/24 09:59:31;;;;;;;;;81.75;64.75;;;;;;;;12252686;29;8964;-57
2020/12/24 10:05:32;;;;;;;;;90.75;71.75;;;;;;;;12247132;28;8925;-58
2020/12/24 10:11:34;;;;;;;;;91.25;70.00;;;;;;;;12251128;29;8875;-58
2020/12/24 10:17:35;;;;;;;;;87.50;67.25;;;;;;;;12253595;29;8864;-57
2020/12/24 10:23:37;;;;;;;;;87.75;66.25;;;;;;;;12254580;28;8869;-57
2020/12/24 10:29:38;;;;;;;;;89.00;67.50;;;;;;;;12264210;29;8864;-58
2020/12/24 10:35:40;;;;;;;;;84.50;65.00;;;;;;;;12260528;28;9632;-59
2020/12/24 10:41:49;;;;;;;;;83.00;63.25;;;;;;;;12264238;28;8936;-58
2020/12/24 10:47:50;;;;;;;;;85.50;65.00;;;;;;;;12267948;28;8846;-57
2020/12/24 10:53:52;;;;;;;;;89.50;66.25;;;;;;;;12266861;28;8866;-58
2020/12/24 10:59:53;;;;;;;;;88.50;67.00;;;;;;;;12263253;29;8915;-59
2020/12/24 11:05:55;;;;;;;;;82.25;64.50;;;;;;;;12261206;28;8871;-58
2020/12/24 11:11:56;;;;;;;;;81.00;62.25;;;;;;;;12269555;28;9017;-58
2020/12/24 11:17:58;;;;;;;;;88.50;67.75;;;;;;;;12263124;29;8956;-58
2020/12/24 11:24:04;;;;;;;;;79.50;64.00;;;;;;;;12222109;29;9625;-56
2020/12/24 11:30:06;;;;;;;;;90.00;69.75;;;;;;;;12248675;28;8886;-57
2020/12/24 11:36:07;;;;;;;;;80.00;64.75;;;;;;;;12246354;28;8847;-57
2020/12/24 11:42:12;;;;;;;;;75.75;60.75;;;;;;;;12260184;28;9631;-58
2020/12/24 11:48:13;;;;;;;;;79.50;61.00;;;;;;;;12251555;28;8935;-56
2020/12/24 11:54:14;;;;;;;;;92.00;70.75;;;;;;;;12246861;28;8945;-57
2020/12/24 12:00:17;;;;;;;;;84.75;66.00;;;;;;;;12259783;28;8859;-57
2020/12/24 12:06:21;;;;;;;;;84.75;67.00;;;;;;;;12231609;28;8902;-57
2020/12/24 12:12:22;;;;;;;;;79.50;62.50;;;;;;;;12256520;28;8966;-59
2020/12/24 12:18:24;;;;;;;;;81.75;64.25;;;;;;;;12250393;28;8862;-58
2020/12/24 12:24:25;;;;;;;;;79.25;61.75;;;;;;;;12247935;28;8843;-57
2020/12/24 12:30:26;;;;;;;;;80.75;63.75;;;;;;;;12247871;29;8837;-57
2020/12/24 12:36:28;;;;;;;;;78.50;59.00;;;;;;;;12209047;28;8850;-57
2020/12/24 12:42:31;;;;;;;;;83.25;63.25;;;;;;;;12256791;29;8864;-57
2020/12/24 12:48:33;;;;;;;;;80.50;63.00;;;;;;;;12253065;28;8839;-60
2020/12/24 12:54:34;;;;;;;;;77.25;61.25;;;;;;;;12251408;28;9679;-56
2020/12/24 13:00:35;;;;;;;;;85.00;64.50;;;;;;;;12256872;29;8852;-57
2020/12/24 13:06:37;;;;;;;;;79.75;62.25;;;;;;;;12255961;28;8863;-58
2020/12/24 13:12:39;;;;;;;;;85.75;66.25;;;;;;;;12256778;29;8838;-59
2020/12/24 13:18:41;;;;;;;;;80.75;64.25;;;;;;;;12256405;28;9596;-57
2020/12/24 13:24:43;;;;;;;;;81.75;65.25;;;;;;;;12243664;28;8854;-59
2020/12/24 13:30:45;;;;;;;;;74.00;58.25;;;;;;;;12244956;29;8988;-57
2020/12/24 13:36:47;;;;;;;;;71.25;58.75;;;;;;;;12237559;29;8871;-56
2020/12/24 13:42:49;;;;;;;;;78.75;61.25;;;;;;;;12244808;28;8981;-58
2020/12/24 13:48:50;;;;;;;;;84.00;66.00;;;;;;;;12246417;29;8853;-57
2020/12/24 13:54:52;;;;;;;;;76.75;61.75;;;;;;;;12227267;29;8851;-56
2020/12/24 14:00:53;;;;;;;;;85.00;67.00;;;;;;;;12251783;29;8864;-57
2020/12/24 14:06:55;;;;;;;;;80.75;62.75;;;;;;;;12249520;28;8887;-57
2020/12/24 14:12:56;;;;;;;;;82.50;66.00;;;;;;;;12260535;28;8917;-56
2020/12/24 14:18:57;;;;;;;;;84.25;66.25;;;;;;;;12254848;29;9610;-57
2020/12/24 14:24:59;;;;;;;;;82.25;65.75;;;;;;;;12260919;28;8839;-55
2020/12/24 14:31:05;;;;;;;;;81.75;63.25;;;;;;;;12242204;29;8881;-58
2020/12/24 14:37:06;;;;;;;;;85.25;65.75;;;;;;;;12253381;28;8840;-58
2020/12/24 14:43:07;;;;;;;;;89.25;67.75;;;;;;;;12263904;28;8854;-57
2020/12/24 14:49:09;;;;;;;;;86.75;66.50;;;;;;;;12236491;28;8876;-56
2020/12/24 14:55:10;;;;;;;;;83.75;65.25;;;;;;;;12263995;28;9663;-55
2020/12/24 15:01:22;;;;;;;;;83.00;63.50;;;;;;;;12259390;28;8872;-56
2020/12/24 15:07:23;;;;;;;;;80.50;61.25;;;;;;;;12255138;28;8879;-57
2020/12/24 15:13:24;;;;;;;;;90.50;69.50;;;;;;;;12262958;28;8859;-55
2020/12/24 15:19:26;;;;;;;;;81.00;65.00;;;;;;;;12260463;28;8871;-56
2020/12/24 15:25:27;;;;;;;;;88.25;68.50;;;;;;;;12258022;28;8839;-58
2020/12/24 15:31:40;;;;;;;;;83.50;66.25;;;;;;;;12257908;29;8882;-57
2020/12/24 15:37:43;;;;;;;;;86.00;67.50;;;;;;;;12243260;29;8857;-56
2020/12/24 15:43:44;;;;;;;;;85.25;67.00;;;;;;;;12254881;29;8923;-55
2020/12/24 15:49:47;;;;;;;;;84.00;66.00;;;;;;;;12243783;29;8922;-57
2020/12/24 15:55:48;;;;;;;;;82.50;64.75;;;;;;;;12251130;28;8842;-58
2020/12/24 16:01:58;;;;;;;;;83.00;63.75;;;;;;;;12247482;29;8852;-57
2020/12/24 16:08:00;;;;;;;;;79.25;64.00;;;;;;;;12254797;28;9584;-55
2020/12/24 16:14:01;;;;;;;;;87.25;68.00;;;;;;;;12253967;29;8899;-56
2020/12/24 16:20:04;;;;;;;;;85.75;66.25;;;;;;;;12245194;29;8859;-56
2020/12/24 16:26:08;;;;;;;;;87.25;69.25;;;;;;;;12246902;28;8874;-57
2020/12/24 16:32:19;;;;;;;;;86.00;69.00;;;;;;;;12232139;28;8890;-58
2020/12/24 16:38:20;;;;;;;;;89.50;69.50;;;;;;;;12255911;28;8831;-56
2020/12/24 16:44:22;;;;;;;;;83.25;65.75;;;;;;;;12252903;28;8968;-56
2020/12/24 16:50:24;;;;;;;;;90.25;70.50;;;;;;;;12248247;28;8871;-57
2020/12/24 16:56:26;;;;;;;;;85.50;67.00;;;;;;;;12239744;29;8856;-56
2020/12/24 17:02:36;;;;;;;;;87.00;69.50;;;;;;;;12254806;28;8851;-56
2020/12/24 17:08:37;;;;;;;;;94.50;74.00;;;;;;;;12254858;29;8880;-56
2020/12/24 17:14:40;;;;;;;;;93.75;73.00;;;;;;;;12260474;28;8847;-55
2020/12/24 17:20:45;;;;;;;;;84.75;65.25;;;;;;;;12254449;28;8843;-57
2020/12/24 17:26:47;;;;;;;;;90.00;70.25;;;;;;;;12252683;29;8845;-56
2020/12/24 17:32:53;;;;;;;;;90.75;69.00;;;;;;;;12249486;29;8861;-57
2020/12/24 17:38:55;;;;;;;;;86.00;68.75;;;;;;;;12253184;28;8882;-57
2020/12/24 17:44:56;;;;;;;;;84.25;67.50;;;;;;;;12240918;29;8872;-57
2020/12/24 17:50:57;;;;;;;;;87.25;68.25;;;;;;;;12249341;29;9663;-56
2020/12/24 17:56:59;;;;;;;;;91.75;71.75;;;;;;;;12243351;29;8845;-57
2020/12/24 18:03:12;;;;;;;;;89.00;69.00;;;;;;;;12236927;29;9751;-56
2020/12/24 18:09:13;;;;;;;;;89.00;70.25;;;;;;;;12250793;29;8909;-57
2020/12/24 18:15:14;;;;;;;;;84.25;68.00;;;;;;;;12226095;29;8863;-56
2020/12/24 18:21:16;;;;;;;;;91.75;70.75;;;;;;;;12250940;29;9444;-57
2020/12/24 18:27:17;;;;;;;;;92.00;73.00;;;;;;;;12246357;29;8845;-56
2020/12/24 18:33:32;;;;;;;;;100.75;83.25;;;;;;;;12246810;29;8885;-56
2020/12/24 18:39:34;;;;;;;;;101.00;82.67;;;;;;;;12250371;29;8880;-56
2020/12/24 18:45:35;;;;;;;;;109.67;101.33;;;;;;;;12230023;28;8854;-57
2020/12/24 18:51:36;;;;;;;;;99.33;84.00;;;;;;;;12259969;29;8853;-56
2020/12/24 18:57:39;;;;;;;;;98.67;85.33;;;;;;;;12257521;28;8897;-57
2020/12/24 19:03:49;;;;;;;;;104.00;87.33;;;;;;;;12260269;28;8863;-57
2020/12/24 19:09:51;;;;;;;;;105.00;89.33;;;;;;;;12259069;29;8904;-57
2020/12/24 19:15:52;;;;;;;;;112.00;100.67;;;;;;;;12262843;28;8874;-56
2020/12/24 19:21:54;;;;;;;;;100.00;82.67;;;;;;;;12258958;29;8892;-55
2020/12/24 19:27:55;;;;;;;;;106.00;92.33;;;;;;;;12258325;29;8854;-56
2020/12/24 19:34:10;;;;;;;;;115.67;106.00;;;;;;;;12256018;28;8913;-56
2020/12/24 19:40:12;;;;;;;;;119.33;105.33;;;;;;;;12252991;28;8875;-56
2020/12/24 19:46:15;;;;;;;;;117.67;105.67;;;;;;;;12241486;28;8867;-57
2020/12/24 19:52:18;;;;;;;;;121.33;103.67;;;;;;;;12255844;28;8886;-57
2020/12/24 19:58:19;;;;;;;;;121.00;102.67;;;;;;;;12244835;28;8874;-56
2020/12/24 20:04:28;;;;;;;;;116.33;103.67;;;;;;;;12253619;28;8905;-57
2020/12/24 20:10:30;;;;;;;;;113.33;105.67;;;;;;;;12246882;28;8842;-56
2020/12/24 20:16:32;;;;;;;;;120.67;105.33;;;;;;;;12223328;28;8879;-56
2020/12/24 20:22:34;;;;;;;;;116.33;104.00;;;;;;;;12253425;29;8986;-58
2020/12/24 20:28:37;;;;;;;;;122.00;109.33;;;;;;;;12250401;28;8842;-56
2020/12/24 20:34:50;;;;;;;;;111.67;98.67;;;;;;;;12252799;29;8852;-56
2020/12/24 20:40:51;;;;;;;;;117.00;108.67;;;;;;;;12247008;29;9000;-57
2020/12/24 20:46:53;;;;;;;;;128.00;108.33;;;;;;;;12254734;28;8865;-55
2020/12/24 20:52:58;;;;;;;;;115.33;102.00;;;;;;;;12251869;29;8833;-55
2020/12/24 20:59:00;;;;;;;;;116.00;107.00;;;;;;;;12256109;28;8839;-57
2020/12/24 21:05:12;;;;;;;;;120.67;106.33;;;;;;;;12244180;28;8899;-56
2020/12/24 21:11:16;;;;;;;;;108.67;99.67;;;;;;;;12249319;28;8847;-55
2020/12/24 21:17:18;;;;;;;;;109.00;97.00;;;;;;;;12257628;28;8920;-57
2020/12/24 21:23:19;;;;;;;;;104.67;93.00;;;;;;;;12234957;28;8879;-57
2020/12/24 21:29:20;;;;;;;;;115.33;98.00;;;;;;;;12257911;28;8835;-56
2020/12/24 21:35:29;;;;;;;;;114.00;102.33;;;;;;;;12244180;28;8971;-55
2020/12/24 21:41:31;;;;;;;;;100.33;86.33;;;;;;;;12228360;28;8858;-57
2020/12/24 21:47:32;;;;;;;;;104.67;92.67;;;;;;;;12247177;29;8907;-57
2020/12/24 21:53:34;;;;;;;;;111.00;98.33;;;;;;;;12239217;29;8863;-58
2020/12/24 21:59:36;;;;;;;;;89.00;72.67;;;;;;;;12242575;29;8863;-57
2020/12/24 22:05:49;;;;;;;;;105.67;94.00;;;;;;;;12244866;28;8853;-57
2020/12/24 22:11:51;;;;;;;;;101.00;82.00;;;;;;;;12247826;29;8854;-55
2020/12/24 22:17:53;;;;;;;;;95.00;74.33;;;;;;;;12245945;29;9642;-55
2020/12/24 22:23:56;;;;;;;;;102.67;81.33;;;;;;;;12223165;29;8954;-55
2020/12/24 22:29:58;;;;;;;;;95.00;79.33;;;;;;;;12260481;28;8843;-54
2020/12/24 22:36:12;;;;;;;;;98.33;77.67;;;;;;;;12249614;28;8949;-58
2020/12/24 22:42:13;;;;;;;;;99.00;81.67;;;;;;;;12256675;28;9011;-56
2020/12/24 22:48:15;;;;;;;;;103.33;84.67;;;;;;;;12261640;28;9645;-56
2020/12/24 22:54:16;;;;;;;;;91.67;74.67;;;;;;;;12252771;28;8859;-55
2020/12/24 23:00:26;;;;;;;;;100.33;83.67;;;;;;;;12264375;28;9700;-56
2020/12/24 23:06:31;;;;;;;;;106.00;85.33;;;;;;;;12257650;28;8867;-55
2020/12/24 23:12:33;;;;;;;;;97.33;78.67;;;;;;;;12261467;29;8857;-56
2020/12/24 23:18:34;;;;;;;;;98.00;80.33;;;;;;;;12259163;28;8863;-55
2020/12/24 23:24:36;;;;;;;;;98.50;77.00;;;;;;;;12256618;28;8858;-56
2020/12/24 23:30:38;;;;;;;;;100.00;82.33;;;;;;;;12260428;28;8857;-55
2020/12/24 23:36:54;;;;;;;;;96.00;77.00;;;;;;;;12263205;28;8846;-57
2020/12/24 23:42:57;;;;;;;;;96.00;77.00;;;;;;;;12230021;28;8847;-56
2020/12/24 23:48:58;;;;;;;;;97.00;81.67;;;;;;;;12224878;29;8874;-56
2020/12/24 23:54:59;;;;;;;;;99.67;82.67;;;;;;;;12253401;28;8858;-56
